Hauptseite
METAR-TAF:

METAR-TAF

Flughäfen :

Harbin, China

Breite: 45-45N, Länge: 126-46E, Höhe: 143 m

Beobachtung

Neuester Wetterbericht von vor 47 Minuten, um 21:00 UTC
Wind 2 kt aus Nordost
Temperatur -20°C
Luftfeuchtigkeit 70%
Luftdruck 1027 hPa
Sichtweite 10 km oder mehr
keine Wolken unter 1500 m und keine Kumulonimbus oder Gewitterwolken

METAR: ZYHB 252100Z 04001MPS CAVOK M20/M24 Q1027 NOSIG

Zeit: 05:47 (21:47 UTC)

Prognose

Neuester Wetterbericht von vor 8 Stunden und 42 Minuten, um 13:05 UTC
Gültige Prognose vom 25 um 18 UTC bis 26 um 18 UTC
Wind 8 kt aus Ost/Nordost
Sichtweite: 4000 m
Aufgelockert bewölkt in der Höhe von 3300 ft
trockener Dunst

TAF: ZYHB 251305Z 2518/2618 07004MPS 4000 HZ SCT033 TXM05/06Z TNM19/22Z

Wetterbeobachtungen und Prognosen von mehr als 4000 Flughäfen (METAR und TAF Bericht).

Die verfügbaren Stationen werden durch gelbe und rote Markierungen auf der Karte dargestellt.

Führen Sie die Maus auf sie, um den Namen der Station zu sehen.

Darauf klicken, um die Beobachtung von Wetterbeobachtungen und Prognosen zu sehen.

Um die Karte zu ändern : klicken Sie auf den grünen Tasten mit einem schwarzen Kreuz Zum Vergrößern, auf den grünen Button mit einem Gedankenstrich zu verkleinern, oder auf die grünen Pfeile für benachbarte Karten.


METAR-TAF: